Cedar Mills, Minnesota
Current Conditions -  °F | °C
As of 8:52 PM on Saturday 25 Oct 2014 (Local Time) from KHCD Reporting Station
Clear Clear  
Wind Chill: 40°   Ceiling: Unl
Heat Index: 43°   Visibility: 10mi
Dew Point: 31°   Wind: 5mph
Humidity: 64%   Direction: 260°W
Pressure: 30.07"   Gusts: NA
Location:  44.9062°N, 94.4284°W
Report Text: KHCD 260152Z AUTO 26004KT 10SM CLR 06/00 A3007 RMK AO2 T00601003
Loading
Personal Weather Stations






























Interactive Weather Map
Tropical Storm Tracking
New forecast layout! Learn more

10-Day Weather Forecast

Advertisements
Track Severe Weather on mobile